Gorham, Kansas
Current Conditions -  °F | °C
As of 5:53 PM on Friday 19 Dec 2014 (Local Time) from KRSL Reporting Station
Clear Clear  
Wind Chill: -3°   Ceiling: Unl
Heat Index:   Visibility: 8mi
Dew Point:   Wind: 10mph
Humidity: 96%   Direction: 180°S
Pressure: 30.09"   Gusts: NA
Location:  38.88°N, 99.02°W
Report Text: KRSL 192353Z AUTO 18009KT 8SM CLR 02/01 A3009 RMK AO2 SLP206 T00170011 10056 20017 50000
Loading
Personal Weather Stations






























Interactive Weather Map New forecast layout! Learn more

10-Day Weather Forecast

Advertisements
Track Severe Weather on mobile